Clark, Colorado
Current Conditions -  °F | °C
As of 12:35 PM on Thursday 30 Oct 2014 (Local Time) from KSBS Reporting Station
Clear Clear  
Wind Chill: 54°   Ceiling: Unl
Heat Index: 54°   Visibility: 10mi
Dew Point: 30°   Wind: 5mph
Humidity: 40%   Direction: 230°SW
Pressure: 30.4"   Gusts: NA
Location:  40.76°N, 106.94°W
Report Text: KSBS 301835Z AUTO 23004KT 10SM CLR 12/M01 A3040 RMK AO1 T01211013
Loading
Personal Weather Stations






























Interactive Weather Map
Tropical Storm Tracking
New forecast layout! Learn more

10-Day Weather Forecast

Advertisements
Track Severe Weather on mobile